KONX

Details ICAO KONX
Name CURRITUCK CO
Region United States
Timezone America/New_York (UTC-5.0)
Plans Departing 8
Arriving 7
Stats Elevation 16 ft / 5 m (AMSL)
Location 36.398930° -76.016301°
Runways 1
Magnetic Variation 10.915° W
Sunrise 2017-12-16 12:10:36 UTC / 2017-12-16 07:10:36 Local
Sunset 2017-12-16 21:51:45 UTC / 2017-12-16 16:51:45 Local
Advertisement - Login to hide

Runways

ID Width Length Bearing (true) Bearing (mag) Surface Threshold Offset Overrun Length
05 150 ft / 46 m 4,005 ft / 1,221 m 34.88° 45.80° Concrete 0 ft / 0 m 0 ft / 0 m
23 150 ft / 46 m 4,005 ft / 1,221 m 214.88° 225.80° Concrete 350 ft / 107 m 0 ft / 0 m

Map

Weather


0- 5 10 15 20 25 30 35+ Temperature / ° C

Clouds and Precipitation
Forecast for 2017-12-17 00:00 UTC. Updated 2 hours ago

Ground ~20,000 ft ~40,000 ft Winds

METAR

KONX 162040Z AUTO 23009KT 170V230 10SM CLR 08/M05 A3018 RMK AO2 T00771046

TAF

Not found

Frequencies

Recorded 119.77 MHz AWOS 3
Approach 124.82 MHz OCEANA APP/DEP
Unicom 122.90 MHz CTAF
Warning: Do not use this data for real-world aviation or navigation. No guarantee of current accuracy is given.